الصفحة الرئيسية
METAR-TAF:

METAR-TAF

مطار :

سافانخت, لاوس

دائرة عرض: 16-33-24N, خط طول: 104-45-34E, ارتفاع: 155 متر

مراقبة الطقس الحالي

تاريخ ووقت الإصدار 11ساعات و 21 دقيقة قبل الساعة 12:00UTC
ريح 2 عقدة من الجنوب
درجة الحرارة 36°درجة مئوية
الرطوبة 39%
ضغط 1006 hPa
الرؤية: 4000 متر
غيوم متفرقة على ارتفاع 2000 قدم
غيوم مفككة على ارتفاع 10000 قدم
العجاج,

METAR: VLSK 181200Z 18002KT 4000 HZ SCT020 BKN100 36/20 Q1006 NOSIG

زمن: 06:21 (23:21 UTC)

توقعات

تاريخ ووقت الإصدار 6ساعات و 21 دقيقة قبل الساعة 17:00UTC
التوقعات صالحة من18 الساعة 18 UTC إلى 19 الساعة 18 UTC
ريح 4 عقدة من الجنوب
الرؤية: 3000 متر
غيوم متفرقة على ارتفاع 4000 قدم
غيوم متفرقة على ارتفاع 10000 قدم
غشاء,

TAF: VLSK 181700Z 1818/1918 18004KT 3000 BR SCT040 SCT100

أرصاد الطقس والتوقعات من أكثر من 4000 مطار (تقارير الطقس للمطار METAR والتنبؤ بالطقس بالمطارTAF).

المحطات المتاحة هي النقط الصفراء والحمراء على الخريطة.

حرك المؤشر فوق النقطة لمعرفة اسم المحطة.

ثم انقر لمعرفة أرصاد وتوقعات الطقس.

لتغيير الخارطة: اضغط على الأزرار الخضراء مع رمز الصليب الأسود للتكبير. على الزر الأخضر مع شرطة للتصغير، أو على الأسهم الخضراء للخرائط المجاورة.


METAR-TAF: